sensor_id;sensor_type;location;lat;lon;timestamp;P1;durP1;ratioP1;P2;durP2;ratioP2
56331;SDS011;42237;53.340;6.812;2022-11-20T00:01:12;19.13;;;13.57;;
56331;SDS011;42237;53.340;6.812;2022-11-20T00:03:39;19.23;;;13.25;;
56331;SDS011;42237;53.340;6.812;2022-11-20T00:06:07;19.10;;;13.35;;
56331;SDS011;42237;53.340;6.812;2022-11-20T00:08:38;19.90;;;14.00;;
56331;SDS011;42237;53.340;6.812;2022-11-20T00:11:04;18.38;;;12.95;;
56331;SDS011;42237;53.340;6.812;2022-11-20T00:13:35;20.60;;;13.68;;
56331;SDS011;42237;53.340;6.812;2022-11-20T00:16:02;18.30;;;13.20;;
56331;SDS011;42237;53.340;6.812;2022-11-20T00:18:30;18.27;;;13.32;;
56331;SDS011;42237;53.340;6.812;2022-11-20T00:21:01;17.92;;;12.75;;
56331;SDS011;42237;53.340;6.812;2022-11-20T00:23:28;19.90;;;13.52;;
56331;SDS011;42237;53.340;6.812;2022-11-20T00:25:54;19.60;;;13.90;;
56331;SDS011;42237;53.340;6.812;2022-11-20T00:28:20;21.05;;;14.88;;
56331;SDS011;42237;53.340;6.812;2022-11-20T00:30:45;19.90;;;14.63;;
56331;SDS011;42237;53.340;6.812;2022-11-20T00:33:11;20.60;;;13.43;;
56331;SDS011;42237;53.340;6.812;2022-11-20T00:35:36;22.35;;;14.50;;
56331;SDS011;42237;53.340;6.812;2022-11-20T00:38:02;19.65;;;14.07;;
56331;SDS011;42237;53.340;6.812;2022-11-20T00:40:28;20.35;;;13.77;;
56331;SDS011;42237;53.340;6.812;2022-11-20T00:42:53;20.88;;;14.30;;
56331;SDS011;42237;53.340;6.812;2022-11-20T00:45:19;22.50;;;14.27;;
56331;SDS011;42237;53.340;6.812;2022-11-20T00:47:45;18.95;;;13.63;;
56331;SDS011;42237;53.340;6.812;2022-11-20T00:50:10;19.40;;;12.77;;
56331;SDS011;42237;53.340;6.812;2022-11-20T00:52:36;17.30;;;12.27;;
56331;SDS011;42237;53.340;6.812;2022-11-20T00:55:02;19.27;;;12.93;;
56331;SDS011;42237;53.340;6.812;2022-11-20T00:57:27;20.05;;;13.45;;
56331;SDS011;42237;53.340;6.812;2022-11-20T00:59:53;17.83;;;12.90;;
56331;SDS011;42237;53.340;6.812;2022-11-20T01:02:19;19.40;;;13.02;;
56331;SDS011;42237;53.340;6.812;2022-11-20T01:04:45;17.85;;;11.77;;
56331;SDS011;42237;53.340;6.812;2022-11-20T01:07:10;19.50;;;12.48;;
56331;SDS011;42237;53.340;6.812;2022-11-20T01:09:36;16.60;;;11.80;;
56331;SDS011;42237;53.340;6.812;2022-11-20T01:12:02;17.98;;;12.38;;
56331;SDS011;42237;53.340;6.812;2022-11-20T01:14:27;18.85;;;12.93;;
56331;SDS011;42237;53.340;6.812;2022-11-20T01:16:53;18.30;;;12.82;;
56331;SDS011;42237;53.340;6.812;2022-11-20T01:19:20;16.38;;;12.00;;
56331;SDS011;42237;53.340;6.812;2022-11-20T01:21:49;17.58;;;11.88;;
56331;SDS011;42237;53.340;6.812;2022-11-20T01:24:17;17.98;;;12.20;;
56331;SDS011;42237;53.340;6.812;2022-11-20T01:26:46;18.25;;;12.93;;
56331;SDS011;42237;53.340;6.812;2022-11-20T01:29:16;19.02;;;12.52;;
56331;SDS011;42237;53.340;6.812;2022-11-20T01:31:44;17.63;;;12.45;;
56331;SDS011;42237;53.340;6.812;2022-11-20T01:34:11;20.13;;;13.20;;
56331;SDS011;42237;53.340;6.812;2022-11-20T01:36:39;16.73;;;12.48;;
56331;SDS011;42237;53.340;6.812;2022-11-20T01:39:07;17.38;;;12.27;;
56331;SDS011;42237;53.340;6.812;2022-11-20T01:41:53;17.30;;;12.02;;
56331;SDS011;42237;53.340;6.812;2022-11-20T01:44:57;18.08;;;12.25;;
56331;SDS011;42237;53.340;6.812;2022-11-20T01:52:40;16.77;;;11.35;;
56331;SDS011;42237;53.340;6.812;2022-11-20T01:55:22;17.45;;;12.85;;
56331;SDS011;42237;53.340;6.812;2022-11-20T02:00:20;17.08;;;12.27;;
56331;SDS011;42237;53.340;6.812;2022-11-20T02:02:48;17.13;;;12.13;;
56331;SDS011;42237;53.340;6.812;2022-11-20T02:05:32;17.02;;;11.75;;
56331;SDS011;42237;53.340;6.812;2022-11-20T02:08:06;18.00;;;12.60;;
56331;SDS011;42237;53.340;6.812;2022-11-20T02:10:32;19.08;;;12.60;;
56331;SDS011;42237;53.340;6.812;2022-11-20T02:12:58;17.10;;;12.23;;
56331;SDS011;42237;53.340;6.812;2022-11-20T02:15:42;18.30;;;12.20;;
56331;SDS011;42237;53.340;6.812;2022-11-20T02:18:09;16.88;;;12.15;;
56331;SDS011;42237;53.340;6.812;2022-11-20T02:20:36;17.90;;;11.52;;
56331;SDS011;42237;53.340;6.812;2022-11-20T02:25:53;16.10;;;12.18;;
56331;SDS011;42237;53.340;6.812;2022-11-20T02:28:20;18.48;;;12.77;;
56331;SDS011;42237;53.340;6.812;2022-11-20T02:30:46;19.33;;;12.93;;
56331;SDS011;42237;53.340;6.812;2022-11-20T02:33:12;19.85;;;12.80;;
56331;SDS011;42237;53.340;6.812;2022-11-20T02:35:39;17.83;;;12.23;;
56331;SDS011;42237;53.340;6.812;2022-11-20T02:38:06;18.33;;;12.52;;
56331;SDS011;42237;53.340;6.812;2022-11-20T02:40:32;17.92;;;12.15;;
56331;SDS011;42237;53.340;6.812;2022-11-20T02:42:57;18.23;;;12.25;;
56331;SDS011;42237;53.340;6.812;2022-11-20T02:45:23;18.88;;;12.55;;
56331;SDS011;42237;53.340;6.812;2022-11-20T02:47:50;16.27;;;12.27;;
56331;SDS011;42237;53.340;6.812;2022-11-20T02:50:16;18.80;;;12.88;;
56331;SDS011;42237;53.340;6.812;2022-11-20T02:52:42;18.38;;;11.80;;
56331;SDS011;42237;53.340;6.812;2022-11-20T02:55:07;17.83;;;11.38;;
56331;SDS011;42237;53.340;6.812;2022-11-20T02:57:33;16.88;;;11.00;;
56331;SDS011;42237;53.340;6.812;2022-11-20T02:59:59;15.43;;;9.70;;
56331;SDS011;42237;53.340;6.812;2022-11-20T03:02:25;17.23;;;11.40;;
56331;SDS011;42237;53.340;6.812;2022-11-20T03:04:50;15.38;;;10.80;;
56331;SDS011;42237;53.340;6.812;2022-11-20T03:07:16;14.65;;;10.52;;
56331;SDS011;42237;53.340;6.812;2022-11-20T03:09:42;16.08;;;10.02;;
56331;SDS011;42237;53.340;6.812;2022-11-20T03:12:07;16.00;;;9.98;;
56331;SDS011;42237;53.340;6.812;2022-11-20T03:14:34;14.40;;;9.55;;
56331;SDS011;42237;53.340;6.812;2022-11-20T03:16:59;12.40;;;9.70;;
56331;SDS011;42237;53.340;6.812;2022-11-20T03:19:25;15.25;;;9.70;;
56331;SDS011;42237;53.340;6.812;2022-11-20T03:21:51;14.77;;;10.10;;
56331;SDS011;42237;53.340;6.812;2022-11-20T03:24:16;14.43;;;9.73;;
56331;SDS011;42237;53.340;6.812;2022-11-20T03:26:42;14.35;;;10.02;;
56331;SDS011;42237;53.340;6.812;2022-11-20T03:29:08;13.93;;;10.40;;
56331;SDS011;42237;53.340;6.812;2022-11-20T03:31:38;16.05;;;10.68;;
56331;SDS011;42237;53.340;6.812;2022-11-20T03:34:05;19.20;;;11.30;;
56331;SDS011;42237;53.340;6.812;2022-11-20T03:36:32;18.00;;;11.98;;
56331;SDS011;42237;53.340;6.812;2022-11-20T03:38:58;16.20;;;11.70;;
56331;SDS011;42237;53.340;6.812;2022-11-20T03:41:28;17.63;;;11.57;;
56331;SDS011;42237;53.340;6.812;2022-11-20T03:43:56;15.52;;;10.57;;
56331;SDS011;42237;53.340;6.812;2022-11-20T03:46:23;16.60;;;11.35;;
56331;SDS011;42237;53.340;6.812;2022-11-20T03:48:50;18.58;;;11.80;;
56331;SDS011;42237;53.340;6.812;2022-11-20T03:51:20;17.05;;;11.65;;
56331;SDS011;42237;53.340;6.812;2022-11-20T03:53:48;16.17;;;10.55;;
56331;SDS011;42237;53.340;6.812;2022-11-20T03:56:16;15.00;;;10.50;;
56331;SDS011;42237;53.340;6.812;2022-11-20T03:58:43;17.85;;;11.55;;
56331;SDS011;42237;53.340;6.812;2022-11-20T04:01:10;18.60;;;12.18;;
56331;SDS011;42237;53.340;6.812;2022-11-20T04:03:38;16.58;;;11.70;;
56331;SDS011;42237;53.340;6.812;2022-11-20T04:06:09;18.75;;;12.02;;
56331;SDS011;42237;53.340;6.812;2022-11-20T04:08:40;15.82;;;11.57;;
56331;SDS011;42237;53.340;6.812;2022-11-20T04:11:10;16.05;;;11.82;;
56331;SDS011;42237;53.340;6.812;2022-11-20T04:13:57;15.68;;;11.95;;
56331;SDS011;42237;53.340;6.812;2022-11-20T04:16:29;18.65;;;11.70;;
56331;SDS011;42237;53.340;6.812;2022-11-20T04:18:57;18.13;;;12.50;;
56331;SDS011;42237;53.340;6.812;2022-11-20T04:21:24;19.00;;;12.70;;
56331;SDS011;42237;53.340;6.812;2022-11-20T04:23:50;17.80;;;12.13;;
56331;SDS011;42237;53.340;6.812;2022-11-20T04:26:18;17.90;;;11.50;;
56331;SDS011;42237;53.340;6.812;2022-11-20T04:28:44;17.13;;;11.73;;
56331;SDS011;42237;53.340;6.812;2022-11-20T04:31:11;15.30;;;11.02;;
56331;SDS011;42237;53.340;6.812;2022-11-20T04:33:39;18.17;;;11.68;;
56331;SDS011;42237;53.340;6.812;2022-11-20T04:36:28;16.70;;;11.50;;
56331;SDS011;42237;53.340;6.812;2022-11-20T04:38:52;16.75;;;11.50;;
56331;SDS011;42237;53.340;6.812;2022-11-20T04:41:19;17.38;;;11.23;;
56331;SDS011;42237;53.340;6.812;2022-11-20T04:43:47;18.15;;;12.27;;
56331;SDS011;42237;53.340;6.812;2022-11-20T04:46:13;17.45;;;12.27;;
56331;SDS011;42237;53.340;6.812;2022-11-20T04:48:39;16.25;;;11.52;;
56331;SDS011;42237;53.340;6.812;2022-11-20T04:51:05;18.10;;;12.63;;
56331;SDS011;42237;53.340;6.812;2022-11-20T04:53:31;16.38;;;11.00;;
56331;SDS011;42237;53.340;6.812;2022-11-20T04:56:00;18.42;;;11.88;;
56331;SDS011;42237;53.340;6.812;2022-11-20T04:58:27;14.63;;;10.63;;
56331;SDS011;42237;53.340;6.812;2022-11-20T05:00:53;14.73;;;10.73;;
56331;SDS011;42237;53.340;6.812;2022-11-20T05:03:18;15.32;;;11.05;;
56331;SDS011;42237;53.340;6.812;2022-11-20T05:05:44;15.85;;;10.60;;
56331;SDS011;42237;53.340;6.812;2022-11-20T05:08:10;16.50;;;10.73;;
56331;SDS011;42237;53.340;6.812;2022-11-20T05:10:35;17.73;;;10.93;;
56331;SDS011;42237;53.340;6.812;2022-11-20T05:13:01;15.02;;;9.70;;
56331;SDS011;42237;53.340;6.812;2022-11-20T05:15:27;16.85;;;11.07;;
56331;SDS011;42237;53.340;6.812;2022-11-20T05:17:52;13.27;;;9.80;;
56331;SDS011;42237;53.340;6.812;2022-11-20T05:20:18;14.75;;;10.02;;
56331;SDS011;42237;53.340;6.812;2022-11-20T05:22:44;14.43;;;10.27;;
56331;SDS011;42237;53.340;6.812;2022-11-20T05:25:10;14.88;;;10.23;;
56331;SDS011;42237;53.340;6.812;2022-11-20T05:27:36;14.40;;;10.45;;
56331;SDS011;42237;53.340;6.812;2022-11-20T05:30:03;14.85;;;10.35;;
56331;SDS011;42237;53.340;6.812;2022-11-20T05:32:30;14.35;;;10.50;;
56331;SDS011;42237;53.340;6.812;2022-11-20T05:34:55;16.23;;;11.18;;
56331;SDS011;42237;53.340;6.812;2022-11-20T05:37:21;16.70;;;11.13;;
56331;SDS011;42237;53.340;6.812;2022-11-20T05:39:46;15.60;;;11.35;;
56331;SDS011;42237;53.340;6.812;2022-11-20T05:42:12;14.77;;;10.88;;
56331;SDS011;42237;53.340;6.812;2022-11-20T05:45:00;15.38;;;11.32;;
56331;SDS011;42237;53.340;6.812;2022-11-20T05:47:27;14.00;;;10.38;;
56331;SDS011;42237;53.340;6.812;2022-11-20T05:49:56;19.20;;;11.80;;
56331;SDS011;42237;53.340;6.812;2022-11-20T05:52:21;15.88;;;11.52;;
56331;SDS011;42237;53.340;6.812;2022-11-20T05:54:47;17.05;;;11.50;;
56331;SDS011;42237;53.340;6.812;2022-11-20T05:57:13;16.27;;;11.27;;
56331;SDS011;42237;53.340;6.812;2022-11-20T05:59:39;17.13;;;12.10;;
56331;SDS011;42237;53.340;6.812;2022-11-20T06:02:04;17.73;;;12.15;;
56331;SDS011;42237;53.340;6.812;2022-11-20T06:04:30;16.15;;;11.38;;
56331;SDS011;42237;53.340;6.812;2022-11-20T06:06:56;17.05;;;12.10;;
56331;SDS011;42237;53.340;6.812;2022-11-20T06:09:21;16.52;;;11.68;;
56331;SDS011;42237;53.340;6.812;2022-11-20T06:11:47;16.50;;;11.38;;
56331;SDS011;42237;53.340;6.812;2022-11-20T06:14:13;18.55;;;11.95;;
56331;SDS011;42237;53.340;6.812;2022-11-20T06:16:38;16.45;;;11.95;;
56331;SDS011;42237;53.340;6.812;2022-11-20T06:19:04;17.02;;;11.73;;
56331;SDS011;42237;53.340;6.812;2022-11-20T06:21:29;16.88;;;11.93;;
56331;SDS011;42237;53.340;6.812;2022-11-20T06:23:55;17.17;;;12.18;;
56331;SDS011;42237;53.340;6.812;2022-11-20T06:26:22;18.50;;;12.32;;
56331;SDS011;42237;53.340;6.812;2022-11-20T06:28:49;20.08;;;12.93;;
56331;SDS011;42237;53.340;6.812;2022-11-20T06:31:18;17.67;;;13.00;;
56331;SDS011;42237;53.340;6.812;2022-11-20T06:33:45;19.98;;;12.68;;
56331;SDS011;42237;53.340;6.812;2022-11-20T06:36:11;17.25;;;13.00;;
56331;SDS011;42237;53.340;6.812;2022-11-20T06:38:38;19.90;;;13.55;;
56331;SDS011;42237;53.340;6.812;2022-11-20T06:41:05;18.20;;;12.40;;
56331;SDS011;42237;53.340;6.812;2022-11-20T06:43:32;17.63;;;13.48;;
56331;SDS011;42237;53.340;6.812;2022-11-20T06:45:58;19.02;;;12.65;;
56331;SDS011;42237;53.340;6.812;2022-11-20T06:48:25;18.20;;;12.68;;
56331;SDS011;42237;53.340;6.812;2022-11-20T06:50:52;18.10;;;12.57;;
56331;SDS011;42237;53.340;6.812;2022-11-20T06:53:18;18.65;;;12.40;;
56331;SDS011;42237;53.340;6.812;2022-11-20T06:55:44;16.58;;;12.05;;
56331;SDS011;42237;53.340;6.812;2022-11-20T06:58:11;17.67;;;12.13;;
56331;SDS011;42237;53.340;6.812;2022-11-20T07:00:37;17.17;;;12.23;;
56331;SDS011;42237;53.340;6.812;2022-11-20T07:03:03;16.83;;;12.23;;
56331;SDS011;42237;53.340;6.812;2022-11-20T07:05:34;16.40;;;12.20;;
56331;SDS011;42237;53.340;6.812;2022-11-20T07:08:00;17.85;;;12.80;;
56331;SDS011;42237;53.340;6.812;2022-11-20T07:10:26;17.88;;;12.55;;
56331;SDS011;42237;53.340;6.812;2022-11-20T07:12:52;19.50;;;12.65;;
56331;SDS011;42237;53.340;6.812;2022-11-20T07:15:19;15.77;;;11.93;;
56331;SDS011;42237;53.340;6.812;2022-11-20T07:17:45;17.73;;;13.20;;
56331;SDS011;42237;53.340;6.812;2022-11-20T07:20:12;20.70;;;13.55;;
56331;SDS011;42237;53.340;6.812;2022-11-20T07:22:38;20.00;;;13.68;;
56331;SDS011;42237;53.340;6.812;2022-11-20T07:25:04;18.33;;;13.43;;
56331;SDS011;42237;53.340;6.812;2022-11-20T07:27:31;19.58;;;12.90;;
56331;SDS011;42237;53.340;6.812;2022-11-20T07:29:56;18.40;;;12.68;;
56331;SDS011;42237;53.340;6.812;2022-11-20T07:32:22;16.65;;;11.95;;
56331;SDS011;42237;53.340;6.812;2022-11-20T07:34:48;20.35;;;13.38;;
56331;SDS011;42237;53.340;6.812;2022-11-20T07:37:14;19.83;;;12.88;;
56331;SDS011;42237;53.340;6.812;2022-11-20T07:39:40;19.70;;;12.40;;
56331;SDS011;42237;53.340;6.812;2022-11-20T07:42:06;16.80;;;11.80;;
56331;SDS011;42237;53.340;6.812;2022-11-20T07:44:33;18.23;;;12.77;;
56331;SDS011;42237;53.340;6.812;2022-11-20T07:46:58;18.58;;;12.40;;
56331;SDS011;42237;53.340;6.812;2022-11-20T07:49:24;18.80;;;12.68;;
56331;SDS011;42237;53.340;6.812;2022-11-20T07:51:50;17.20;;;12.98;;
56331;SDS011;42237;53.340;6.812;2022-11-20T07:54:18;18.77;;;13.32;;
56331;SDS011;42237;53.340;6.812;2022-11-20T07:56:44;19.95;;;13.30;;
56331;SDS011;42237;53.340;6.812;2022-11-20T07:59:09;18.40;;;12.40;;
56331;SDS011;42237;53.340;6.812;2022-11-20T08:01:37;17.13;;;12.07;;
56331;SDS011;42237;53.340;6.812;2022-11-20T08:04:03;22.85;;;13.52;;
56331;SDS011;42237;53.340;6.812;2022-11-20T08:06:29;18.50;;;12.65;;
56331;SDS011;42237;53.340;6.812;2022-11-20T08:08:54;18.58;;;13.25;;
56331;SDS011;42237;53.340;6.812;2022-11-20T08:11:20;18.50;;;13.00;;
56331;SDS011;42237;53.340;6.812;2022-11-20T08:14:04;16.92;;;12.52;;
56331;SDS011;42237;53.340;6.812;2022-11-20T08:16:39;15.88;;;11.98;;
56331;SDS011;42237;53.340;6.812;2022-11-20T08:19:10;14.40;;;10.57;;
56331;SDS011;42237;53.340;6.812;2022-11-20T08:21:36;16.83;;;11.20;;
56331;SDS011;42237;53.340;6.812;2022-11-20T08:24:02;15.07;;;10.85;;
56331;SDS011;42237;53.340;6.812;2022-11-20T08:26:28;19.25;;;12.63;;
56331;SDS011;42237;53.340;6.812;2022-11-20T08:28:57;16.35;;;11.25;;
56331;SDS011;42237;53.340;6.812;2022-11-20T08:31:24;17.27;;;11.60;;
56331;SDS011;42237;53.340;6.812;2022-11-20T08:33:51;17.42;;;11.40;;
56331;SDS011;42237;53.340;6.812;2022-11-20T08:36:17;16.92;;;11.90;;
56331;SDS011;42237;53.340;6.812;2022-11-20T08:38:54;18.20;;;12.57;;
56331;SDS011;42237;53.340;6.812;2022-11-20T08:41:20;18.35;;;12.40;;
56331;SDS011;42237;53.340;6.812;2022-11-20T08:43:51;18.58;;;11.75;;
56331;SDS011;42237;53.340;6.812;2022-11-20T08:46:18;15.23;;;11.25;;
56331;SDS011;42237;53.340;6.812;2022-11-20T08:48:44;17.58;;;11.95;;
56331;SDS011;42237;53.340;6.812;2022-11-20T08:51:10;17.60;;;11.40;;
56331;SDS011;42237;53.340;6.812;2022-11-20T08:53:36;17.20;;;10.98;;
56331;SDS011;42237;53.340;6.812;2022-11-20T08:56:03;16.10;;;11.48;;
56331;SDS011;42237;53.340;6.812;2022-11-20T08:58:29;16.48;;;11.35;;
56331;SDS011;42237;53.340;6.812;2022-11-20T09:00:54;15.88;;;10.70;;
56331;SDS011;42237;53.340;6.812;2022-11-20T09:03:20;14.90;;;10.43;;
56331;SDS011;42237;53.340;6.812;2022-11-20T09:05:46;14.88;;;10.63;;
56331;SDS011;42237;53.340;6.812;2022-11-20T09:08:12;17.98;;;11.43;;
56331;SDS011;42237;53.340;6.812;2022-11-20T09:10:37;16.30;;;11.13;;
56331;SDS011;42237;53.340;6.812;2022-11-20T09:13:06;15.00;;;10.07;;
56331;SDS011;42237;53.340;6.812;2022-11-20T09:15:32;13.95;;;10.18;;
56331;SDS011;42237;53.340;6.812;2022-11-20T09:17:59;15.65;;;10.10;;
56331;SDS011;42237;53.340;6.812;2022-11-20T09:20:27;14.90;;;9.90;;
56331;SDS011;42237;53.340;6.812;2022-11-20T09:22:54;15.05;;;11.02;;
56331;SDS011;42237;53.340;6.812;2022-11-20T09:25:20;16.67;;;10.18;;
56331;SDS011;42237;53.340;6.812;2022-11-20T09:27:46;15.32;;;9.88;;
56331;SDS011;42237;53.340;6.812;2022-11-20T09:30:12;14.50;;;9.90;;
56331;SDS011;42237;53.340;6.812;2022-11-20T09:32:39;14.68;;;10.50;;
56331;SDS011;42237;53.340;6.812;2022-11-20T09:35:05;14.25;;;9.38;;
56331;SDS011;42237;53.340;6.812;2022-11-20T09:37:32;15.70;;;9.07;;
56331;SDS011;42237;53.340;6.812;2022-11-20T09:39:57;13.13;;;8.82;;
56331;SDS011;42237;53.340;6.812;2022-11-20T09:48:02;13.35;;;8.70;;
56331;SDS011;42237;53.340;6.812;2022-11-20T09:50:32;13.38;;;8.52;;
56331;SDS011;42237;53.340;6.812;2022-11-20T09:55:49;13.93;;;8.82;;
56331;SDS011;42237;53.340;6.812;2022-11-20T09:58:28;11.40;;;8.05;;
56331;SDS011;42237;53.340;6.812;2022-11-20T10:01:08;12.70;;;8.73;;
56331;SDS011;42237;53.340;6.812;2022-11-20T10:03:39;13.80;;;9.55;;
56331;SDS011;42237;53.340;6.812;2022-11-20T10:06:11;13.50;;;8.98;;
56331;SDS011;42237;53.340;6.812;2022-11-20T10:08:41;15.02;;;9.75;;
56331;SDS011;42237;53.340;6.812;2022-11-20T10:14:33;13.80;;;9.68;;
56331;SDS011;42237;53.340;6.812;2022-11-20T10:19:30;16.15;;;10.70;;
56331;SDS011;42237;53.340;6.812;2022-11-20T10:22:22;14.18;;;9.68;;
56331;SDS011;42237;53.340;6.812;2022-11-20T10:30:45;14.77;;;10.10;;
56331;SDS011;42237;53.340;6.812;2022-11-20T10:33:19;15.73;;;10.75;;
56331;SDS011;42237;53.340;6.812;2022-11-20T10:38:37;15.18;;;9.57;;
56331;SDS011;42237;53.340;6.812;2022-11-20T10:41:15;16.48;;;10.68;;
56331;SDS011;42237;53.340;6.812;2022-11-20T10:46:45;15.55;;;10.38;;
56331;SDS011;42237;53.340;6.812;2022-11-20T10:49:14;14.73;;;10.30;;
56331;SDS011;42237;53.340;6.812;2022-11-20T10:57:20;15.82;;;10.30;;
56331;SDS011;42237;53.340;6.812;2022-11-20T11:02:33;14.43;;;9.55;;
56331;SDS011;42237;53.340;6.812;2022-11-20T11:04:59;15.15;;;10.18;;
56331;SDS011;42237;53.340;6.812;2022-11-20T11:07:48;13.20;;;9.75;;
56331;SDS011;42237;53.340;6.812;2022-11-20T11:10:18;17.10;;;11.13;;
56331;SDS011;42237;53.340;6.812;2022-11-20T11:12:51;15.63;;;10.45;;
56331;SDS011;42237;53.340;6.812;2022-11-20T11:18:08;15.43;;;9.45;;
56331;SDS011;42237;53.340;6.812;2022-11-20T11:20:49;13.23;;;8.93;;
56331;SDS011;42237;53.340;6.812;2022-11-20T11:26:19;13.70;;;9.43;;
56331;SDS011;42237;53.340;6.812;2022-11-20T11:31:43;15.20;;;10.50;;
56331;SDS011;42237;53.340;6.812;2022-11-20T11:34:12;16.60;;;10.60;;
56331;SDS011;42237;53.340;6.812;2022-11-20T11:36:40;14.57;;;9.57;;
56331;SDS011;42237;53.340;6.812;2022-11-20T11:39:16;14.95;;;9.25;;
56331;SDS011;42237;53.340;6.812;2022-11-20T11:41:44;15.02;;;9.55;;
56331;SDS011;42237;53.340;6.812;2022-11-20T11:44:19;14.43;;;9.32;;
56331;SDS011;42237;53.340;6.812;2022-11-20T11:47:05;15.13;;;9.63;;
56331;SDS011;42237;53.340;6.812;2022-11-20T11:49:36;11.75;;;8.18;;
56331;SDS011;42237;53.340;6.812;2022-11-20T11:52:15;12.75;;;8.65;;
56331;SDS011;42237;53.340;6.812;2022-11-20T11:57:20;13.35;;;8.13;;
56331;SDS011;42237;53.340;6.812;2022-11-20T12:02:54;12.20;;;8.45;;
56331;SDS011;42237;53.340;6.812;2022-11-20T12:05:42;12.30;;;8.23;;
56331;SDS011;42237;53.340;6.812;2022-11-20T12:08:13;12.40;;;7.80;;
56331;SDS011;42237;53.340;6.812;2022-11-20T12:11:06;13.75;;;8.00;;
56331;SDS011;42237;53.340;6.812;2022-11-20T12:13:40;13.48;;;8.55;;
56331;SDS011;42237;53.340;6.812;2022-11-20T12:16:18;11.70;;;7.60;;
56331;SDS011;42237;53.340;6.812;2022-11-20T12:18:45;12.45;;;8.02;;
56331;SDS011;42237;53.340;6.812;2022-11-20T12:21:31;13.73;;;8.52;;
56331;SDS011;42237;53.340;6.812;2022-11-20T12:27:33;10.68;;;6.90;;
56331;SDS011;42237;53.340;6.812;2022-11-20T12:30:23;11.77;;;7.22;;
56331;SDS011;42237;53.340;6.812;2022-11-20T12:40:18;13.35;;;8.07;;
56331;SDS011;42237;53.340;6.812;2022-11-20T12:43:07;12.38;;;8.65;;
56331;SDS011;42237;53.340;6.812;2022-11-20T12:57:16;13.10;;;8.82;;
56331;SDS011;42237;53.340;6.812;2022-11-20T13:00:00;14.80;;;8.48;;
56331;SDS011;42237;53.340;6.812;2022-11-20T13:08:13;14.13;;;8.75;;
56331;SDS011;42237;53.340;6.812;2022-11-20T13:11:09;12.85;;;8.82;;
56331;SDS011;42237;53.340;6.812;2022-11-20T13:19:30;15.02;;;9.88;;
56331;SDS011;42237;53.340;6.812;2022-11-20T13:21:56;17.23;;;10.25;;
56331;SDS011;42237;53.340;6.812;2022-11-20T13:24:26;15.70;;;10.18;;
56331;SDS011;42237;53.340;6.812;2022-11-20T13:27:02;13.00;;;9.05;;
56331;SDS011;42237;53.340;6.812;2022-11-20T13:29:31;14.85;;;9.15;;
56331;SDS011;42237;53.340;6.812;2022-11-20T13:32:03;15.00;;;9.55;;
56331;SDS011;42237;53.340;6.812;2022-11-20T13:34:39;14.98;;;9.15;;
56331;SDS011;42237;53.340;6.812;2022-11-20T13:37:25;14.52;;;8.68;;
56331;SDS011;42237;53.340;6.812;2022-11-20T13:45:42;12.38;;;7.97;;
56331;SDS011;42237;53.340;6.812;2022-11-20T13:48:22;12.68;;;8.73;;
56331;SDS011;42237;53.340;6.812;2022-11-20T13:59:12;9.25;;;6.30;;
56331;SDS011;42237;53.340;6.812;2022-11-20T14:01:58;8.82;;;6.03;;
56331;SDS011;42237;53.340;6.812;2022-11-20T14:04:26;7.10;;;5.03;;
56331;SDS011;42237;53.340;6.812;2022-11-20T14:06:57;9.20;;;6.10;;
56331;SDS011;42237;53.340;6.812;2022-11-20T14:09:28;9.57;;;6.25;;
56331;SDS011;42237;53.340;6.812;2022-11-20T14:11:55;9.52;;;6.28;;
56331;SDS011;42237;53.340;6.812;2022-11-20T14:14:32;10.32;;;6.88;;
56331;SDS011;42237;53.340;6.812;2022-11-20T14:19:53;12.18;;;8.32;;
56331;SDS011;42237;53.340;6.812;2022-11-20T14:22:23;14.82;;;8.68;;
56331;SDS011;42237;53.340;6.812;2022-11-20T14:27:43;14.43;;;9.48;;
56331;SDS011;42237;53.340;6.812;2022-11-20T14:32:44;13.95;;;9.48;;
56331;SDS011;42237;53.340;6.812;2022-11-20T14:35:16;17.77;;;9.98;;
56331;SDS011;42237;53.340;6.812;2022-11-20T14:37:51;15.85;;;8.95;;
56331;SDS011;42237;53.340;6.812;2022-11-20T14:40:22;14.00;;;9.60;;
56331;SDS011;42237;53.340;6.812;2022-11-20T14:42:48;15.27;;;8.90;;
56331;SDS011;42237;53.340;6.812;2022-11-20T14:45:14;13.63;;;9.35;;
56331;SDS011;42237;53.340;6.812;2022-11-20T14:47:40;14.95;;;9.13;;
56331;SDS011;42237;53.340;6.812;2022-11-20T14:50:28;11.98;;;8.25;;
56331;SDS011;42237;53.340;6.812;2022-11-20T14:52:58;11.27;;;7.68;;
56331;SDS011;42237;53.340;6.812;2022-11-20T14:55:29;13.63;;;7.50;;
56331;SDS011;42237;53.340;6.812;2022-11-20T14:58:03;10.45;;;7.05;;
56331;SDS011;42237;53.340;6.812;2022-11-20T15:00:31;10.13;;;7.00;;
56331;SDS011;42237;53.340;6.812;2022-11-20T15:02:59;10.90;;;7.47;;
56331;SDS011;42237;53.340;6.812;2022-11-20T15:05:26;10.73;;;7.25;;
56331;SDS011;42237;53.340;6.812;2022-11-20T15:08:10;11.67;;;8.17;;
56331;SDS011;42237;53.340;6.812;2022-11-20T15:10:37;11.00;;;7.10;;
56331;SDS011;42237;53.340;6.812;2022-11-20T15:13:11;10.55;;;7.63;;
56331;SDS011;42237;53.340;6.812;2022-11-20T15:18:05;10.30;;;6.68;;
56331;SDS011;42237;53.340;6.812;2022-11-20T15:20:40;11.25;;;7.45;;
56331;SDS011;42237;53.340;6.812;2022-11-20T15:23:13;11.85;;;7.97;;
56331;SDS011;42237;53.340;6.812;2022-11-20T15:25:40;23.13;;;13.00;;
56331;SDS011;42237;53.340;6.812;2022-11-20T15:28:26;13.35;;;8.68;;
56331;SDS011;42237;53.340;6.812;2022-11-20T15:30:58;18.15;;;11.18;;
56331;SDS011;42237;53.340;6.812;2022-11-20T15:33:24;15.30;;;10.30;;
56331;SDS011;42237;53.340;6.812;2022-11-20T15:35:50;15.00;;;8.70;;
56331;SDS011;42237;53.340;6.812;2022-11-20T15:38:16;12.25;;;8.20;;
56331;SDS011;42237;53.340;6.812;2022-11-20T15:40:42;10.88;;;7.38;;
56331;SDS011;42237;53.340;6.812;2022-11-20T15:43:07;13.23;;;8.55;;
56331;SDS011;42237;53.340;6.812;2022-11-20T15:48:08;12.35;;;7.68;;
56331;SDS011;42237;53.340;6.812;2022-11-20T15:50:38;11.48;;;7.78;;
56331;SDS011;42237;53.340;6.812;2022-11-20T15:53:23;11.57;;;7.55;;
56331;SDS011;42237;53.340;6.812;2022-11-20T15:55:48;11.63;;;8.00;;
56331;SDS011;42237;53.340;6.812;2022-11-20T15:58:14;11.80;;;7.82;;
56331;SDS011;42237;53.340;6.812;2022-11-20T16:00:41;10.77;;;7.57;;
56331;SDS011;42237;53.340;6.812;2022-11-20T16:03:11;13.32;;;8.27;;
56331;SDS011;42237;53.340;6.812;2022-11-20T16:05:38;12.73;;;7.63;;
56331;SDS011;42237;53.340;6.812;2022-11-20T16:08:03;10.82;;;7.35;;
56331;SDS011;42237;53.340;6.812;2022-11-20T16:10:29;12.25;;;7.93;;
56331;SDS011;42237;53.340;6.812;2022-11-20T16:12:55;12.07;;;8.02;;
56331;SDS011;42237;53.340;6.812;2022-11-20T16:15:39;12.88;;;7.80;;
56331;SDS011;42237;53.340;6.812;2022-11-20T16:18:12;13.15;;;7.95;;
56331;SDS011;42237;53.340;6.812;2022-11-20T16:20:40;10.45;;;7.75;;
56331;SDS011;42237;53.340;6.812;2022-11-20T16:23:06;11.45;;;8.75;;
56331;SDS011;42237;53.340;6.812;2022-11-20T16:25:32;12.35;;;8.60;;
56331;SDS011;42237;53.340;6.812;2022-11-20T16:27:58;11.93;;;8.02;;
56331;SDS011;42237;53.340;6.812;2022-11-20T16:30:25;11.52;;;7.72;;
56331;SDS011;42237;53.340;6.812;2022-11-20T16:32:52;13.10;;;8.32;;
56331;SDS011;42237;53.340;6.812;2022-11-20T16:35:17;12.60;;;8.50;;
56331;SDS011;42237;53.340;6.812;2022-11-20T16:37:43;13.15;;;8.45;;